createdAt,value
2022-10-29T00:00:20.092Z,0.00
2022-10-29T00:01:20.117Z,0.00
2022-10-29T00:02:20.128Z,0.00
2022-10-29T00:03:20.148Z,0.00
2022-10-29T00:04:20.046Z,0.00
2022-10-29T00:05:20.031Z,0.00
2022-10-29T00:06:20.046Z,0.00
2022-10-29T00:07:20.005Z,0.00
2022-10-29T00:08:19.995Z,0.00
2022-10-29T00:09:19.998Z,0.00
2022-10-29T00:10:19.979Z,0.00
2022-10-29T00:11:19.976Z,0.00
2022-10-29T00:12:19.955Z,0.00
2022-10-29T00:13:19.958Z,0.00
2022-10-29T00:14:19.943Z,0.00
2022-10-29T00:15:19.915Z,0.00
2022-10-29T00:16:19.908Z,0.00
2022-10-29T00:17:19.925Z,0.00
2022-10-29T00:18:19.889Z,0.00
2022-10-29T00:19:19.867Z,0.00
2022-10-29T00:20:19.877Z,0.00
2022-10-29T00:21:19.857Z,0.00
2022-10-29T00:22:19.845Z,0.00
2022-10-29T00:23:19.827Z,0.00
2022-10-29T00:24:19.828Z,0.00
2022-10-29T00:25:19.808Z,0.00
2022-10-29T00:26:19.819Z,0.00
2022-10-29T00:27:19.779Z,0.00
2022-10-29T00:28:19.790Z,0.00
2022-10-29T00:29:19.760Z,0.00
2022-10-29T00:30:19.750Z,0.00
2022-10-29T00:31:19.815Z,0.00
2022-10-29T00:32:19.790Z,0.00
2022-10-29T00:34:19.728Z,0.00
2022-10-29T00:35:19.691Z,0.00
2022-10-29T00:36:19.691Z,0.00
2022-10-29T00:37:19.689Z,0.00
2022-10-29T00:38:19.674Z,0.00
2022-10-29T00:39:19.672Z,0.00
2022-10-29T00:40:19.653Z,0.00
2022-10-29T00:41:19.649Z,0.00
2022-10-29T00:42:19.636Z,0.00
2022-10-29T00:43:19.609Z,0.00
2022-10-29T00:44:19.621Z,0.00
2022-10-29T00:45:19.591Z,0.00
2022-10-29T00:46:19.584Z,0.00
2022-10-29T00:47:19.581Z,0.00
2022-10-29T00:48:19.562Z,0.00
2022-10-29T00:49:19.573Z,0.00
2022-10-29T00:50:19.541Z,0.00
2022-10-29T00:51:19.524Z,0.00
2022-10-29T00:52:19.515Z,0.00
2022-10-29T00:53:19.505Z,0.00
2022-10-29T00:54:19.496Z,0.00
2022-10-29T00:55:19.497Z,0.00
2022-10-29T00:56:19.479Z,0.00
2022-10-29T00:57:19.466Z,0.00
2022-10-29T00:58:19.456Z,0.00
2022-10-29T00:59:19.453Z,0.00
2022-10-29T01:00:19.435Z,0.00
2022-10-29T01:01:19.616Z,0.00
2022-10-29T01:02:19.554Z,0.00
2022-10-29T01:03:19.417Z,0.00
2022-10-29T01:04:19.395Z,0.00
2022-10-29T01:05:19.379Z,0.00
2022-10-29T01:06:19.372Z,0.00
2022-10-29T01:07:19.353Z,0.00
2022-10-29T01:08:19.359Z,0.00
2022-10-29T01:09:19.340Z,0.00
2022-10-29T01:10:19.330Z,0.00
2022-10-29T01:11:19.311Z,0.00
2022-10-29T01:12:19.321Z,0.00
2022-10-29T01:13:19.292Z,0.00
2022-10-29T01:14:19.286Z,0.00
2022-10-29T01:15:19.267Z,0.00
2022-10-29T01:16:19.260Z,0.00
2022-10-29T01:17:19.260Z,0.00
2022-10-29T01:18:19.240Z,0.00
2022-10-29T01:19:19.266Z,0.00
2022-10-29T01:20:19.253Z,0.00
2022-10-29T01:21:19.202Z,0.00
2022-10-29T01:22:19.203Z,0.00
2022-10-29T01:23:19.202Z,0.00
2022-10-29T01:24:19.200Z,0.00
2022-10-29T01:25:19.160Z,0.00
2022-10-29T01:26:19.158Z,0.00
2022-10-29T01:27:19.132Z,0.00
2022-10-29T01:28:19.167Z,0.00
2022-10-29T01:29:19.141Z,0.00
2022-10-29T01:30:19.112Z,0.00
2022-10-29T01:31:19.093Z,0.00
2022-10-29T01:32:19.104Z,0.00
2022-10-29T01:33:19.073Z,0.00
2022-10-29T01:34:19.064Z,0.00
2022-10-29T01:35:19.054Z,0.00
2022-10-29T01:36:19.072Z,0.00
2022-10-29T01:37:19.036Z,0.00
2022-10-29T01:38:19.016Z,0.00
2022-10-29T01:39:19.069Z,0.00
2022-10-29T01:40:18.996Z,0.00
2022-10-29T01:41:19.015Z,0.00
2022-10-29T01:42:18.976Z,0.00
2022-10-29T01:44:18.956Z,0.00
2022-10-29T01:45:18.957Z,0.00
2022-10-29T01:46:18.956Z,0.00
2022-10-29T01:47:18.946Z,0.00
2022-10-29T01:48:18.936Z,0.00
2022-10-29T01:49:18.908Z,0.00
2022-10-29T01:50:18.888Z,0.00
2022-10-29T01:51:18.892Z,0.00
2022-10-29T01:52:18.886Z,0.00
2022-10-29T01:53:18.866Z,0.00
2022-10-29T01:54:18.858Z,0.00
2022-10-29T01:55:18.839Z,0.00
2022-10-29T01:56:18.837Z,0.00
2022-10-29T01:57:18.840Z,0.00
2022-10-29T01:58:18.821Z,0.00
2022-10-29T01:59:29.078Z,0.00
2022-10-29T02:00:19.798Z,0.00
2022-10-29T02:01:18.837Z,0.00
2022-10-29T02:02:18.791Z,0.00
2022-10-29T02:03:18.777Z,0.00
2022-10-29T02:04:18.781Z,0.00
2022-10-29T02:05:18.749Z,0.00
2022-10-29T02:06:18.731Z,0.00
2022-10-29T02:07:18.729Z,0.00
2022-10-29T02:08:18.742Z,0.00
2022-10-29T02:09:18.712Z,0.00
2022-10-29T02:10:18.693Z,0.00
2022-10-29T02:11:18.683Z,0.00
2022-10-29T02:12:18.662Z,0.00
2022-10-29T02:13:18.728Z,0.00
2022-10-29T02:14:18.644Z,0.00
2022-10-29T02:15:18.642Z,0.00
2022-10-29T02:16:18.616Z,0.00
2022-10-29T02:17:18.644Z,0.00
2022-10-29T02:18:18.604Z,0.00
2022-10-29T02:19:18.606Z,0.00
2022-10-29T02:20:18.593Z,0.00
2022-10-29T02:21:18.576Z,0.00
2022-10-29T02:22:18.567Z,0.00
2022-10-29T02:23:18.575Z,0.00
2022-10-29T02:24:18.556Z,0.00
2022-10-29T02:25:18.556Z,0.00
2022-10-29T02:26:18.536Z,0.00
2022-10-29T02:27:18.516Z,0.00
2022-10-29T02:29:18.513Z,0.00
2022-10-29T02:30:18.484Z,0.00
2022-10-29T02:31:18.476Z,0.00
2022-10-29T02:32:18.457Z,0.00
2022-10-29T02:33:18.467Z,0.00
2022-10-29T02:34:18.428Z,0.00
2022-10-29T02:35:18.448Z,0.00
2022-10-29T02:36:18.399Z,0.00
2022-10-29T02:37:18.418Z,0.00
2022-10-29T02:38:18.391Z,0.00
2022-10-29T02:39:18.371Z,0.00
2022-10-29T02:40:18.365Z,0.00
2022-10-29T02:41:18.371Z,0.00
2022-10-29T02:42:18.329Z,0.00
2022-10-29T02:44:18.319Z,0.00
2022-10-29T02:45:18.320Z,0.00
2022-10-29T02:46:18.319Z,0.00
2022-10-29T02:47:18.300Z,0.00
2022-10-29T02:48:18.282Z,0.00
2022-10-29T02:49:18.281Z,0.00
2022-10-29T02:50:18.261Z,0.00
2022-10-29T02:51:18.257Z,0.00
2022-10-29T02:52:18.232Z,0.00
2022-10-29T02:53:18.249Z,0.00
2022-10-29T02:54:18.213Z,0.00
2022-10-29T02:55:18.230Z,0.00
2022-10-29T02:56:18.203Z,0.00
2022-10-29T02:57:18.202Z,0.00
2022-10-29T02:58:18.199Z,0.00
2022-10-29T02:59:18.172Z,0.00
2022-10-29T03:00:18.151Z,0.00
2022-10-29T03:01:18.212Z,0.00
2022-10-29T03:02:18.251Z,0.00
2022-10-29T03:03:18.136Z,0.00
2022-10-29T03:04:18.115Z,0.00
2022-10-29T03:05:18.105Z,0.00
2022-10-29T03:06:18.075Z,0.00
2022-10-29T03:07:18.082Z,0.00
2022-10-29T03:08:18.085Z,0.00
2022-10-29T03:09:18.079Z,0.00
2022-10-29T03:10:18.055Z,0.00
2022-10-29T03:11:18.046Z,0.00
2022-10-29T03:12:18.027Z,0.00
2022-10-29T03:13:18.027Z,0.00
2022-10-29T03:14:18.014Z,0.00
2022-10-29T03:15:18.011Z,0.00
2022-10-29T03:16:17.986Z,0.00
2022-10-29T03:17:17.978Z,0.00
2022-10-29T03:18:17.956Z,0.00
2022-10-29T03:19:17.980Z,0.00
2022-10-29T03:20:17.958Z,0.00
2022-10-29T03:21:17.926Z,0.00
2022-10-29T03:22:17.918Z,0.00
2022-10-29T03:23:17.928Z,0.00
2022-10-29T03:24:17.889Z,0.00
2022-10-29T03:25:17.878Z,0.00
2022-10-29T03:26:17.879Z,0.00
2022-10-29T03:27:17.891Z,0.00
2022-10-29T03:28:17.860Z,0.00
2022-10-29T03:29:17.903Z,0.00
2022-10-29T03:30:17.822Z,0.00
2022-10-29T03:31:17.832Z,0.00
2022-10-29T03:32:17.855Z,0.00
2022-10-29T03:33:17.791Z,0.00
2022-10-29T03:34:17.791Z,0.00
2022-10-29T03:35:17.783Z,0.00
2022-10-29T03:36:17.900Z,0.00
2022-10-29T03:37:17.763Z,0.00
2022-10-29T03:38:17.763Z,0.00
2022-10-29T03:39:17.752Z,0.00
2022-10-29T03:40:17.761Z,0.00
2022-10-29T03:41:17.712Z,0.00
2022-10-29T03:42:17.699Z,0.00
2022-10-29T03:43:17.703Z,0.00
2022-10-29T03:44:17.673Z,0.00
2022-10-29T03:45:17.701Z,0.00
2022-10-29T03:46:17.679Z,0.00
2022-10-29T03:47:17.654Z,0.00
2022-10-29T03:48:17.644Z,0.00
2022-10-29T03:49:17.984Z,0.00
2022-10-29T03:50:17.624Z,0.00
2022-10-29T03:51:17.653Z,0.00
2022-10-29T03:52:17.609Z,0.00
2022-10-29T03:53:17.616Z,0.00
2022-10-29T03:54:17.615Z,0.00
2022-10-29T03:55:17.565Z,0.00
2022-10-29T03:56:17.583Z,0.00
2022-10-29T03:57:17.537Z,0.00
2022-10-29T03:58:17.535Z,0.00
2022-10-29T03:59:17.526Z,0.00
2022-10-29T04:00:17.515Z,0.00
2022-10-29T04:01:17.630Z,0.00
2022-10-29T04:02:18.636Z,0.00
2022-10-29T04:03:17.487Z,0.00
2022-10-29T04:04:18.252Z,0.00
2022-10-29T04:05:17.517Z,0.00
2022-10-29T04:06:18.477Z,0.00
2022-10-29T04:07:17.479Z,0.00
2022-10-29T04:08:18.139Z,0.00
2022-10-29T04:09:17.429Z,0.00
2022-10-29T04:10:18.194Z,0.00
2022-10-29T04:11:17.408Z,0.00
2022-10-29T04:12:17.590Z,0.00
2022-10-29T04:13:17.380Z,0.00
2022-10-29T04:14:18.127Z,0.00
2022-10-29T04:15:17.381Z,0.00
2022-10-29T04:16:17.370Z,0.00
2022-10-29T04:17:17.360Z,0.00
2022-10-29T04:18:17.388Z,0.00
2022-10-29T04:19:17.322Z,0.00
2022-10-29T04:20:41.317Z,0.00
2022-10-29T04:28:42.493Z,0.00
2022-10-29T04:29:18.233Z,0.00
2022-10-29T04:30:17.181Z,0.00
2022-10-29T04:31:17.171Z,0.00
2022-10-29T04:32:17.174Z,0.00
2022-10-29T04:33:17.153Z,0.00
2022-10-29T04:34:17.162Z,0.00
2022-10-29T04:35:17.236Z,0.00
2022-10-29T04:36:17.135Z,0.00
2022-10-29T04:37:17.107Z,0.00
2022-10-29T04:38:17.118Z,0.00
2022-10-29T04:39:19.560Z,0.00
2022-10-29T04:40:18.099Z,0.00
2022-10-29T04:41:17.085Z,0.00
2022-10-29T04:42:17.065Z,0.00
2022-10-29T04:43:17.056Z,0.00
2022-10-29T04:44:17.027Z,0.00
2022-10-29T04:45:17.046Z,0.00
2022-10-29T04:46:17.047Z,0.00
2022-10-29T04:47:17.027Z,0.00
2022-10-29T04:48:17.016Z,0.00
2022-10-29T04:49:17.057Z,0.00
2022-10-29T04:50:16.968Z,0.00
2022-10-29T04:51:16.968Z,0.00
2022-10-29T04:52:16.978Z,0.00
2022-10-29T04:53:16.957Z,0.00
2022-10-29T04:54:16.925Z,0.00
2022-10-29T04:55:16.918Z,0.00
2022-10-29T04:56:16.917Z,0.00
2022-10-29T04:57:16.908Z,0.00
2022-10-29T04:58:16.900Z,0.00
2022-10-29T04:59:16.894Z,0.00
2022-10-29T05:00:18.847Z,0.00
2022-10-29T05:01:17.082Z,0.00
2022-10-29T05:02:16.873Z,0.00
2022-10-29T05:03:16.830Z,0.00
2022-10-29T05:04:16.846Z,0.00
2022-10-29T05:05:16.840Z,0.00
2022-10-29T05:06:16.828Z,0.00
2022-10-29T05:07:16.800Z,0.00
2022-10-29T05:08:16.780Z,0.00
2022-10-29T05:09:16.783Z,0.00
2022-10-29T05:10:16.773Z,0.00
2022-10-29T05:11:16.773Z,0.00
2022-10-29T05:12:16.749Z,0.00
2022-10-29T05:13:16.743Z,0.00
2022-10-29T05:14:16.732Z,0.00
2022-10-29T05:15:16.732Z,0.00
2022-10-29T05:16:16.702Z,0.00
2022-10-29T05:17:16.694Z,0.00
2022-10-29T05:18:16.672Z,0.00
2022-10-29T05:19:16.661Z,0.00
2022-10-29T05:20:16.687Z,0.00
2022-10-29T05:21:16.693Z,0.00
2022-10-29T05:22:16.624Z,0.00
2022-10-29T05:23:16.621Z,0.00
2022-10-29T05:24:16.613Z,0.00
2022-10-29T05:25:16.604Z,0.00
2022-10-29T05:26:16.574Z,0.00
2022-10-29T05:27:16.595Z,0.00
2022-10-29T05:28:16.575Z,0.00
2022-10-29T05:29:16.577Z,0.00
2022-10-29T05:30:16.552Z,0.00
2022-10-29T05:31:16.563Z,0.00
2022-10-29T05:32:16.536Z,0.00
2022-10-29T05:33:16.516Z,0.00
2022-10-29T05:34:16.496Z,0.00
2022-10-29T05:35:16.507Z,0.00
2022-10-29T05:36:16.475Z,0.00
2022-10-29T05:37:16.485Z,0.00
2022-10-29T05:38:16.458Z,0.00
2022-10-29T05:39:16.464Z,0.00
2022-10-29T05:40:16.451Z,0.00
2022-10-29T05:41:16.428Z,4.00
2022-10-29T05:42:16.408Z,4.00
2022-10-29T05:43:16.441Z,0.00
2022-10-29T05:44:16.397Z,4.00
2022-10-29T05:45:16.388Z,4.00
2022-10-29T05:46:16.388Z,4.00
2022-10-29T05:47:16.361Z,8.00
2022-10-29T05:48:16.370Z,8.00
2022-10-29T05:49:16.352Z,12.00
2022-10-29T05:50:16.346Z,8.00
2022-10-29T05:51:16.338Z,16.00
2022-10-29T05:52:16.329Z,16.00
2022-10-29T05:53:16.289Z,20.00
2022-10-29T05:54:16.308Z,20.00
2022-10-29T05:55:16.280Z,24.00
2022-10-29T05:56:16.292Z,24.00
2022-10-29T05:57:16.250Z,28.00
2022-10-29T05:58:16.262Z,32.00
2022-10-29T05:59:16.240Z,40.00
2022-10-29T06:00:16.233Z,44.00
2022-10-29T06:01:16.283Z,48.00
2022-10-29T06:02:16.360Z,52.00
2022-10-29T06:03:16.313Z,60.00
2022-10-29T06:04:16.198Z,68.00
2022-10-29T06:05:16.173Z,72.00
2022-10-29T06:06:16.242Z,80.00
2022-10-29T06:07:16.143Z,88.00
2022-10-29T06:08:16.163Z,96.00
2022-10-29T06:09:16.133Z,104.00
2022-10-29T06:10:16.113Z,112.00
2022-10-29T06:11:16.114Z,120.00
2022-10-29T06:12:16.121Z,132.00
2022-10-29T06:13:16.804Z,140.00
2022-10-29T06:14:16.093Z,152.00
2022-10-29T06:15:16.055Z,168.00
2022-10-29T06:16:16.076Z,176.00
2022-10-29T06:17:16.042Z,188.00
2022-10-29T06:18:16.066Z,200.00
2022-10-29T06:19:16.015Z,212.00
2022-10-29T06:20:16.018Z,232.00
2022-10-29T06:21:16.006Z,244.00
2022-10-29T06:22:15.993Z,256.00
2022-10-29T06:23:15.973Z,272.00
2022-10-29T06:24:15.986Z,284.00
2022-10-29T06:25:15.955Z,300.00
2022-10-29T06:26:15.948Z,312.00
2022-10-29T06:27:15.968Z,328.00
2022-10-29T06:28:15.938Z,344.00
2022-10-29T06:29:15.905Z,360.00
2022-10-29T06:30:15.897Z,376.00
2022-10-29T06:31:15.898Z,388.00
2022-10-29T06:32:15.887Z,404.00
2022-10-29T06:33:15.895Z,416.00
2022-10-29T06:34:15.858Z,424.00
2022-10-29T06:35:15.867Z,440.00
2022-10-29T06:36:15.850Z,452.00
2022-10-29T06:37:15.837Z,464.00
2022-10-29T06:38:15.852Z,480.00
2022-10-29T06:39:15.802Z,488.00
2022-10-29T06:40:15.812Z,504.00
2022-10-29T06:41:15.822Z,520.00
2022-10-29T06:42:15.800Z,536.00
2022-10-29T06:43:15.778Z,552.00
2022-10-29T06:44:15.763Z,568.00
2022-10-29T06:45:15.752Z,588.00
2022-10-29T06:46:15.730Z,608.00
2022-10-29T06:47:15.712Z,628.00
2022-10-29T06:48:20.655Z,644.00
2022-10-29T06:49:16.702Z,660.00
2022-10-29T06:50:15.692Z,676.00
2022-10-29T06:51:15.739Z,696.00
2022-10-29T06:52:15.681Z,716.00
2022-10-29T06:53:15.649Z,736.00
2022-10-29T06:54:15.646Z,760.00
2022-10-29T06:55:15.644Z,784.00
2022-10-29T06:56:15.622Z,804.00
2022-10-29T06:57:15.630Z,832.00
2022-10-29T06:58:15.612Z,856.00
2022-10-29T06:59:15.604Z,880.00
2022-10-29T07:00:15.585Z,900.00
2022-10-29T07:01:15.621Z,920.00
2022-10-29T07:02:15.564Z,928.00
2022-10-29T07:03:15.553Z,940.00
2022-10-29T07:04:15.561Z,944.00
2022-10-29T07:05:15.521Z,952.00
2022-10-29T07:06:15.544Z,968.00
2022-10-29T07:07:15.536Z,992.00
2022-10-29T07:08:15.505Z,1020.00
2022-10-29T07:09:15.484Z,1040.00
2022-10-29T07:10:15.484Z,1064.00
2022-10-29T07:11:15.496Z,1084.00
2022-10-29T07:12:15.458Z,1100.00
2022-10-29T07:13:15.428Z,1112.00
2022-10-29T07:14:15.439Z,1132.00
2022-10-29T07:15:15.447Z,1148.00
2022-10-29T07:16:15.433Z,1156.00
2022-10-29T07:17:15.389Z,1168.00
2022-10-29T07:18:15.404Z,1176.00
2022-10-29T07:19:15.397Z,1184.00
2022-10-29T07:20:15.356Z,1200.00
2022-10-29T07:21:15.358Z,1220.00
2022-10-29T07:22:15.350Z,1232.00
2022-10-29T07:23:16.180Z,1248.00
2022-10-29T07:24:15.337Z,1272.00
2022-10-29T07:25:15.309Z,1292.00
2022-10-29T07:26:15.331Z,1320.00
2022-10-29T07:27:15.328Z,1352.00
2022-10-29T07:28:15.309Z,1388.00
2022-10-29T07:29:15.290Z,1424.00
2022-10-29T07:30:15.289Z,1448.00
2022-10-29T07:31:15.260Z,1468.00
2022-10-29T07:32:15.251Z,1496.00
2022-10-29T07:33:15.219Z,1516.00
2022-10-29T07:34:15.214Z,1528.00
2022-10-29T07:35:15.197Z,1528.00
2022-10-29T07:36:18.542Z,1528.00
2022-10-29T07:37:15.178Z,1524.00
2022-10-29T07:38:15.193Z,1528.00
2022-10-29T07:39:15.159Z,1536.00
2022-10-29T07:40:15.151Z,1572.00
2022-10-29T07:41:15.163Z,1616.00
2022-10-29T07:42:15.133Z,1680.00
2022-10-29T07:43:15.124Z,1728.00
2022-10-29T07:44:15.110Z,1788.00
2022-10-29T07:45:15.090Z,1848.00
2022-10-29T07:46:15.113Z,1900.00
2022-10-29T07:47:15.085Z,1940.00
2022-10-29T07:48:15.086Z,1940.00
2022-10-29T07:49:15.063Z,1904.00
2022-10-29T07:50:15.054Z,1864.00
2022-10-29T07:51:15.034Z,1860.00
2022-10-29T07:52:15.043Z,1880.00
2022-10-29T07:53:15.035Z,1916.00
2022-10-29T07:54:15.035Z,1964.00
2022-10-29T07:55:14.985Z,2024.00
2022-10-29T07:56:14.993Z,2072.00
2022-10-29T07:57:14.973Z,2140.00
2022-10-29T07:58:14.965Z,2220.00
2022-10-29T07:59:14.945Z,2284.00
2022-10-29T08:00:14.957Z,2360.00
2022-10-29T08:01:15.039Z,2488.00
2022-10-29T08:02:14.946Z,2612.00
2022-10-29T08:03:14.905Z,2756.00
2022-10-29T08:04:14.896Z,2884.00
2022-10-29T08:05:15.027Z,2984.00
2022-10-29T08:06:14.938Z,3040.00
2022-10-29T08:07:14.925Z,3096.00
2022-10-29T08:08:14.876Z,3056.00
2022-10-29T08:09:14.847Z,3004.00
2022-10-29T08:10:14.828Z,2984.00
2022-10-29T08:11:14.825Z,3012.00
2022-10-29T08:12:14.817Z,3076.00
2022-10-29T08:13:14.838Z,3128.00
2022-10-29T08:14:16.707Z,3208.00
2022-10-29T08:15:14.779Z,3272.00
2022-10-29T08:16:14.780Z,3240.00
2022-10-29T08:17:14.751Z,3236.00
2022-10-29T08:18:14.750Z,3252.00
2022-10-29T08:19:14.740Z,3268.00
2022-10-29T08:20:14.740Z,3312.00
2022-10-29T08:21:14.708Z,3400.00
2022-10-29T08:22:14.701Z,3496.00
2022-10-29T08:23:14.730Z,3600.00
2022-10-29T08:24:14.677Z,3612.00
2022-10-29T08:25:14.690Z,3620.00
2022-10-29T08:26:14.661Z,3608.00
2022-10-29T08:27:14.662Z,3596.00
2022-10-29T08:28:14.661Z,3612.00
2022-10-29T08:29:14.652Z,3640.00
2022-10-29T08:30:14.624Z,3584.00
2022-10-29T08:31:14.606Z,3532.00
2022-10-29T08:32:14.613Z,3472.00
2022-10-29T08:33:14.609Z,3436.00
2022-10-29T08:34:14.567Z,3376.00
2022-10-29T08:35:14.562Z,3336.00
2022-10-29T08:36:14.581Z,3360.00
2022-10-29T08:37:14.541Z,3432.00
2022-10-29T08:38:14.542Z,3484.00
2022-10-29T08:39:14.548Z,3520.00
2022-10-29T08:40:14.557Z,3552.00
2022-10-29T08:41:14.494Z,3484.00
2022-10-29T08:42:14.495Z,3356.00
2022-10-29T08:43:14.514Z,3128.00
2022-10-29T08:44:14.543Z,2860.00
2022-10-29T08:45:14.490Z,2648.00
2022-10-29T08:46:14.501Z,2536.00
2022-10-29T08:47:14.455Z,2536.00
2022-10-29T08:48:14.463Z,2564.00
2022-10-29T08:49:14.447Z,2520.00
2022-10-29T08:50:14.429Z,2424.00
2022-10-29T08:51:14.402Z,2292.00
2022-10-29T08:52:14.395Z,2144.00
2022-10-29T08:53:32.919Z,2064.00
2022-10-29T08:54:31.983Z,2012.00
2022-10-29T08:55:15.338Z,1968.00
2022-10-29T08:56:14.348Z,1936.00
2022-10-29T08:57:14.327Z,1920.00
2022-10-29T08:58:14.339Z,1920.00
2022-10-29T08:59:14.339Z,1888.00
2022-10-29T09:00:14.310Z,1960.00
2022-10-29T09:01:14.435Z,2020.00
2022-10-29T09:02:14.352Z,2100.00
2022-10-29T09:03:14.289Z,2160.00
2022-10-29T09:04:14.271Z,2252.00
2022-10-29T09:05:14.249Z,2324.00
2022-10-29T09:06:14.248Z,2344.00
2022-10-29T09:07:14.230Z,2372.00
2022-10-29T09:08:14.226Z,2368.00
2022-10-29T09:09:14.211Z,2372.00
2022-10-29T09:10:14.211Z,2368.00
2022-10-29T09:11:14.173Z,2348.00
2022-10-29T09:12:14.203Z,2336.00
2022-10-29T09:13:14.241Z,2356.00
2022-10-29T09:14:14.162Z,2380.00
2022-10-29T09:15:14.152Z,2376.00
2022-10-29T09:16:14.182Z,2368.00
2022-10-29T09:17:15.623Z,2380.00
2022-10-29T09:18:14.153Z,2416.00
2022-10-29T09:19:14.104Z,2448.00
2022-10-29T09:20:14.101Z,2456.00
2022-10-29T09:21:14.083Z,2460.00
2022-10-29T09:22:14.072Z,2472.00
2022-10-29T09:23:14.055Z,2488.00
2022-10-29T09:24:14.044Z,2500.00
2022-10-29T09:25:14.044Z,2508.00
2022-10-29T09:26:14.026Z,2516.00
2022-10-29T09:27:14.014Z,2532.00
2022-10-29T09:28:14.035Z,2540.00
2022-10-29T09:29:13.996Z,2560.00
2022-10-29T09:30:13.993Z,2576.00
2022-10-29T09:31:13.966Z,2592.00
2022-10-29T09:32:13.986Z,2596.00
2022-10-29T09:33:13.947Z,2620.00
2022-10-29T09:34:13.956Z,2664.00
2022-10-29T09:35:13.938Z,2688.00
2022-10-29T09:36:13.915Z,2712.00
2022-10-29T09:37:13.900Z,2724.00
2022-10-29T09:38:13.937Z,2732.00
2022-10-29T09:39:13.887Z,2752.00
2022-10-29T09:40:13.885Z,2792.00
2022-10-29T09:41:13.868Z,2816.00
2022-10-29T09:42:13.849Z,2832.00
2022-10-29T09:43:13.869Z,2852.00
2022-10-29T09:44:13.839Z,2872.00
2022-10-29T09:45:13.828Z,2888.00
2022-10-29T09:46:13.829Z,2900.00
2022-10-29T09:47:13.791Z,2908.00
2022-10-29T09:48:13.787Z,2920.00
2022-10-29T09:49:13.771Z,2932.00
2022-10-29T09:50:13.770Z,2956.00
2022-10-29T09:51:13.761Z,2952.00
2022-10-29T09:52:13.750Z,2960.00
2022-10-29T09:53:13.741Z,2984.00
2022-10-29T09:54:13.751Z,3040.00
2022-10-29T09:55:13.712Z,3048.00
2022-10-29T09:56:13.714Z,3092.00
2022-10-29T09:57:13.702Z,3124.00
2022-10-29T09:58:13.727Z,3192.00
2022-10-29T09:59:13.675Z,3236.00
2022-10-29T10:00:13.656Z,3276.00
2022-10-29T10:01:13.774Z,3324.00
2022-10-29T10:02:13.681Z,3408.00
2022-10-29T10:03:13.688Z,3524.00
2022-10-29T10:04:13.627Z,3668.00
2022-10-29T10:05:13.612Z,3844.00
2022-10-29T10:06:13.596Z,4064.00
2022-10-29T10:07:13.596Z,4332.00
2022-10-29T10:08:13.596Z,4568.00
2022-10-29T10:09:13.587Z,4756.00
2022-10-29T10:10:13.565Z,4908.00
2022-10-29T10:11:13.548Z,5072.00
2022-10-29T10:12:13.526Z,5248.00
2022-10-29T10:13:16.997Z,5404.00
2022-10-29T10:14:13.508Z,5524.00
2022-10-29T10:15:13.511Z,5588.00
2022-10-29T10:16:13.497Z,5592.00
2022-10-29T10:17:13.478Z,5536.00
2022-10-29T10:18:13.496Z,5468.00
2022-10-29T10:19:13.498Z,5360.00
2022-10-29T10:20:13.457Z,5208.00
2022-10-29T10:21:13.459Z,5036.00
2022-10-29T10:22:16.272Z,4872.00
2022-10-29T10:23:13.429Z,4768.00
2022-10-29T10:24:13.401Z,4704.00
2022-10-29T10:25:13.452Z,4656.00
2022-10-29T10:26:13.399Z,4608.00
2022-10-29T10:27:13.369Z,4528.00
2022-10-29T10:28:13.361Z,4452.00
2022-10-29T10:29:13.360Z,4400.00
2022-10-29T10:30:13.329Z,4340.00
2022-10-29T10:31:13.349Z,4348.00
2022-10-29T10:32:13.339Z,4372.00
2022-10-29T10:33:13.379Z,4352.00
2022-10-29T10:34:13.305Z,4360.00
2022-10-29T10:35:13.292Z,4376.00
2022-10-29T10:36:13.273Z,4392.00
2022-10-29T10:37:13.296Z,4392.00
2022-10-29T10:38:13.262Z,4388.00
2022-10-29T10:39:13.244Z,4392.00
2022-10-29T10:40:13.223Z,4408.00
2022-10-29T10:41:13.224Z,4436.00
2022-10-29T10:42:13.213Z,4464.00
2022-10-29T10:43:13.225Z,4476.00
2022-10-29T10:44:13.184Z,4528.00
2022-10-29T10:45:13.184Z,4596.00
2022-10-29T10:46:13.166Z,4616.00
2022-10-29T10:47:13.184Z,4668.00
2022-10-29T10:48:13.278Z,4732.00
2022-10-29T10:49:13.158Z,4796.00
2022-10-29T10:50:13.150Z,4860.00
2022-10-29T10:51:13.115Z,4932.00
2022-10-29T10:52:13.117Z,4988.00
2022-10-29T10:53:13.100Z,5072.00
2022-10-29T10:54:13.130Z,5140.00
2022-10-29T10:55:13.068Z,5188.00
2022-10-29T10:56:13.066Z,5216.00
2022-10-29T10:57:13.064Z,5232.00
2022-10-29T10:58:13.048Z,5236.00
2022-10-29T10:59:13.059Z,5228.00
2022-10-29T11:00:13.030Z,5336.00
2022-10-29T11:01:13.139Z,5412.00
2022-10-29T11:02:13.113Z,5512.00
2022-10-29T11:03:13.041Z,5588.00
2022-10-29T11:04:12.974Z,5624.00
2022-10-29T11:05:12.995Z,5348.00
2022-10-29T11:06:12.949Z,5696.00
2022-10-29T11:07:12.951Z,6020.00
2022-10-29T11:08:12.922Z,6076.00
2022-10-29T11:09:12.932Z,6140.00
2022-10-29T11:10:12.939Z,6248.00
2022-10-29T11:11:12.942Z,6308.00
2022-10-29T11:12:12.896Z,6336.00
2022-10-29T11:13:12.889Z,6508.00
2022-10-29T11:14:12.882Z,6580.00
2022-10-29T11:15:12.863Z,6660.00
2022-10-29T11:16:12.861Z,6708.00
2022-10-29T11:17:12.846Z,6884.00
2022-10-29T11:18:12.891Z,6952.00
2022-10-29T11:19:12.817Z,7168.00
2022-10-29T11:20:12.798Z,7340.00
2022-10-29T11:21:12.834Z,7540.00
2022-10-29T11:22:12.826Z,7832.00
2022-10-29T11:23:12.775Z,8088.00
2022-10-29T11:24:12.766Z,8384.00
2022-10-29T11:25:12.758Z,8692.00
2022-10-29T11:26:12.745Z,9016.00
2022-10-29T11:27:12.759Z,9376.00
2022-10-29T11:28:12.729Z,9840.00
2022-10-29T11:29:12.718Z,10372.00
2022-10-29T11:30:12.698Z,10984.00
2022-10-29T11:31:12.700Z,11792.00
2022-10-29T11:32:12.699Z,12672.00
2022-10-29T11:33:12.752Z,13444.00
2022-10-29T11:34:12.671Z,14140.00
2022-10-29T11:35:12.662Z,14864.00
2022-10-29T11:36:12.641Z,15904.00
2022-10-29T11:37:12.641Z,19328.00
2022-10-29T11:38:12.644Z,29696.00
2022-10-29T11:39:12.602Z,35680.00
2022-10-29T11:40:12.594Z,36896.00
2022-10-29T11:41:12.603Z,38240.00
2022-10-29T11:42:12.615Z,39360.00
2022-10-29T11:43:12.565Z,39776.00
2022-10-29T11:44:12.555Z,40640.00
2022-10-29T11:45:12.543Z,40800.00
2022-10-29T11:46:12.534Z,40480.00
2022-10-29T11:47:12.516Z,42144.00
2022-10-29T11:48:14.607Z,43424.00
2022-10-29T11:49:13.525Z,45024.00
2022-10-29T11:50:12.486Z,49152.00
2022-10-29T11:51:12.512Z,40160.00
2022-10-29T11:52:12.486Z,28544.00
2022-10-29T11:53:12.467Z,33216.00
2022-10-29T11:54:12.457Z,36480.00
2022-10-29T11:55:12.438Z,40032.00
2022-10-29T11:56:12.438Z,50048.00
2022-10-29T11:57:12.412Z,50176.00
2022-10-29T11:58:12.430Z,52256.00
2022-10-29T11:59:12.421Z,48128.00
2022-10-29T12:00:12.428Z,56384.00
2022-10-29T12:01:12.435Z,57408.00
2022-10-29T12:02:12.391Z,56480.00
2022-10-29T12:03:12.373Z,56416.00
2022-10-29T12:04:12.348Z,56384.00
2022-10-29T12:05:12.390Z,54400.00
2022-10-29T12:06:12.332Z,53568.00
2022-10-29T12:07:12.315Z,48096.00
2022-10-29T12:08:12.312Z,51200.00
2022-10-29T12:09:12.295Z,51840.00
2022-10-29T12:10:12.339Z,51584.00
2022-10-29T12:11:12.296Z,49088.00
2022-10-29T12:12:12.275Z,48544.00
2022-10-29T12:13:12.265Z,51328.00
2022-10-29T12:14:12.247Z,50912.00
2022-10-29T12:15:12.257Z,48864.00
2022-10-29T12:16:12.228Z,50976.00
2022-10-29T12:17:12.249Z,51264.00
2022-10-29T12:18:12.272Z,47744.00
2022-10-29T12:19:12.212Z,38528.00
2022-10-29T12:20:12.263Z,50880.00
2022-10-29T12:21:12.190Z,49440.00
2022-10-29T12:22:12.170Z,47712.00
2022-10-29T12:23:15.208Z,47296.00
2022-10-29T12:24:12.194Z,49152.00
2022-10-29T12:25:12.138Z,50816.00
2022-10-29T12:26:12.123Z,49568.00
2022-10-29T12:27:12.144Z,53024.00
2022-10-29T12:28:12.111Z,54304.00
2022-10-29T12:29:12.123Z,54400.00
2022-10-29T12:30:12.096Z,51168.00
2022-10-29T12:31:12.094Z,50592.00
2022-10-29T12:32:12.086Z,48640.00
2022-10-29T12:33:12.074Z,48832.00
2022-10-29T12:34:12.119Z,44960.00
2022-10-29T12:35:12.046Z,41024.00
2022-10-29T12:36:12.069Z,39168.00
2022-10-29T12:37:12.027Z,35456.00
2022-10-29T12:38:12.028Z,35424.00
2022-10-29T12:39:12.098Z,34144.00
2022-10-29T12:40:12.009Z,30976.00
2022-10-29T12:41:11.988Z,29088.00
2022-10-29T12:42:12.009Z,25120.00
2022-10-29T12:43:11.992Z,31680.00
2022-10-29T12:44:12.044Z,31936.00
2022-10-29T12:45:11.950Z,31488.00
2022-10-29T12:46:20.122Z,25920.00
2022-10-29T12:47:12.962Z,24416.00
2022-10-29T12:48:11.920Z,28480.00